createdAt,value
2023-10-21T00:01:15.858Z,6.20
2023-10-21T00:04:47.812Z,5.93
2023-10-21T00:08:20.371Z,6.90
2023-10-21T00:11:52.579Z,6.87
2023-10-21T00:15:24.676Z,6.32
2023-10-21T00:18:56.555Z,6.53
2023-10-21T00:22:28.814Z,6.50
2023-10-21T00:26:03.336Z,6.40
2023-10-21T00:29:36.299Z,6.47
2023-10-21T00:33:08.252Z,6.28
2023-10-21T00:36:41.395Z,6.10
2023-10-21T00:40:13.362Z,6.78
2023-10-21T00:43:45.663Z,6.32
2023-10-21T00:47:17.557Z,6.30
2023-10-21T00:50:50.701Z,6.88
2023-10-21T00:54:23.946Z,5.97
2023-10-21T00:57:56.850Z,6.72
2023-10-21T01:01:28.795Z,6.83
2023-10-21T01:05:00.872Z,6.90
2023-10-21T01:08:43.093Z,6.63
2023-10-21T01:12:16.408Z,5.93
2023-10-21T01:15:48.576Z,6.18
2023-10-21T01:19:20.651Z,5.95
2023-10-21T01:22:52.421Z,6.00
2023-10-21T01:26:24.803Z,5.78
2023-10-21T01:29:56.590Z,6.45
2023-10-21T01:33:29.212Z,5.88
2023-10-21T01:37:01.042Z,5.47
2023-10-21T01:40:33.090Z,6.18
2023-10-21T01:44:04.997Z,7.47
2023-10-21T01:47:37.476Z,6.03
2023-10-21T01:51:09.973Z,6.45
2023-10-21T01:54:45.615Z,6.30
2023-10-21T01:58:17.405Z,6.97
2023-10-21T02:01:49.621Z,6.05
2023-10-21T02:05:22.588Z,6.60
2023-10-21T02:08:55.134Z,6.18
2023-10-21T02:12:29.439Z,6.10
2023-10-21T02:16:02.717Z,7.20
2023-10-21T02:19:34.729Z,5.72
2023-10-21T02:23:07.323Z,5.83
2023-10-21T02:26:41.801Z,6.10
2023-10-21T02:30:17.660Z,5.38
2023-10-21T02:33:49.840Z,6.47
2023-10-21T02:37:22.130Z,5.82
2023-10-21T02:40:54.012Z,4.82
2023-10-21T02:44:27.945Z,5.18
2023-10-21T02:48:01.482Z,5.40
2023-10-21T02:51:34.104Z,6.10
2023-10-21T02:55:06.891Z,5.85
2023-10-21T02:58:39.027Z,5.23
2023-10-21T03:02:10.897Z,5.43
2023-10-21T03:05:43.787Z,6.07
2023-10-21T03:09:17.315Z,5.43
2023-10-21T03:12:49.648Z,5.97
2023-10-21T03:16:21.737Z,6.30
2023-10-21T03:19:55.633Z,6.55
2023-10-21T03:23:29.091Z,6.50
2023-10-21T03:27:01.284Z,6.80
2023-10-21T03:30:33.106Z,6.20
2023-10-21T03:34:06.230Z,6.40
2023-10-21T03:37:38.052Z,6.45
2023-10-21T03:41:12.612Z,6.03
2023-10-21T03:44:44.628Z,6.80
2023-10-21T03:48:16.866Z,6.90
2023-10-21T03:51:48.714Z,7.10
2023-10-21T03:55:21.271Z,6.85
2023-10-21T03:58:53.465Z,6.10
2023-10-21T04:02:25.560Z,5.45
2023-10-21T04:05:58.021Z,5.88
2023-10-21T04:09:30.516Z,5.47
2023-10-21T04:13:02.505Z,5.80
2023-10-21T04:16:34.627Z,6.45
2023-10-21T04:20:07.231Z,5.32
2023-10-21T04:23:39.464Z,5.60
2023-10-21T04:27:11.189Z,5.93
2023-10-21T04:30:47.357Z,6.22
2023-10-21T04:34:22.640Z,6.60
2023-10-21T04:37:54.815Z,6.40
2023-10-21T04:41:26.638Z,6.25
2023-10-21T04:44:58.818Z,6.00
2023-10-21T04:48:31.122Z,5.80
2023-10-21T04:52:04.357Z,5.70
2023-10-21T04:55:36.232Z,5.53
2023-10-21T04:59:08.357Z,6.73
2023-10-21T05:02:40.278Z,4.93
2023-10-21T05:06:12.510Z,5.50
2023-10-21T05:09:44.396Z,5.60
2023-10-21T05:13:17.698Z,5.03
2023-10-21T05:16:50.432Z,5.97
2023-10-21T05:20:22.652Z,5.20
2023-10-21T05:23:54.845Z,6.05
2023-10-21T05:27:26.969Z,7.00
2023-10-21T05:30:59.389Z,7.05
2023-10-21T05:34:32.003Z,6.57
2023-10-21T05:38:04.190Z,6.75
2023-10-21T05:41:36.282Z,6.30
2023-10-21T05:45:09.681Z,4.87
2023-10-21T05:48:42.002Z,5.60
2023-10-21T05:52:16.262Z,6.32
2023-10-21T05:55:48.634Z,4.97
2023-10-21T05:59:20.566Z,5.00
2023-10-21T06:02:52.770Z,6.25
2023-10-21T06:06:24.872Z,5.70
2023-10-21T06:09:57.145Z,5.80
2023-10-21T06:13:28.971Z,6.30
2023-10-21T06:17:01.240Z,5.35
2023-10-21T06:20:33.209Z,5.60
2023-10-21T06:24:06.861Z,5.97
2023-10-21T06:27:38.645Z,5.22
2023-10-21T06:31:10.765Z,6.05
2023-10-21T06:34:43.048Z,6.30
2023-10-21T06:38:16.072Z,6.25
2023-10-21T06:41:48.043Z,6.97
2023-10-21T06:45:20.309Z,6.83
2023-10-21T06:48:52.379Z,7.55
2023-10-21T06:52:24.440Z,7.15
2023-10-21T06:55:56.363Z,8.60
2023-10-21T06:59:28.625Z,6.45
2023-10-21T07:03:00.578Z,6.40
2023-10-21T07:06:32.939Z,6.80
2023-10-21T07:10:05.354Z,7.43
2023-10-21T07:13:47.847Z,7.45
2023-10-21T07:17:20.290Z,7.80
2023-10-21T07:20:58.777Z,7.10
2023-10-21T07:24:30.835Z,7.18
2023-10-21T07:28:03.354Z,7.78
2023-10-21T07:31:35.478Z,7.23
2023-10-21T07:35:10.333Z,7.30
2023-10-21T07:38:42.224Z,7.50
2023-10-21T07:42:15.726Z,7.43
2023-10-21T07:45:47.622Z,7.80
2023-10-21T07:49:19.650Z,8.07
2023-10-21T07:52:51.563Z,7.90
2023-10-21T07:56:24.033Z,8.27
2023-10-21T07:59:56.050Z,8.80
2023-10-21T08:03:29.145Z,8.50
2023-10-21T08:07:01.167Z,8.33
2023-10-21T08:10:33.840Z,8.68
2023-10-21T08:14:05.875Z,9.45
2023-10-21T08:17:38.171Z,10.70
2023-10-21T08:21:10.214Z,9.50
2023-10-21T08:24:42.560Z,9.50
2023-10-21T08:28:14.625Z,9.38
2023-10-21T08:31:46.736Z,9.67
2023-10-21T08:35:18.498Z,9.90
2023-10-21T08:38:51.755Z,8.80
2023-10-21T08:42:32.746Z,9.30
2023-10-21T08:46:22.644Z,9.43
2023-10-21T08:49:55.715Z,10.13
2023-10-21T08:53:28.446Z,9.88
2023-10-21T08:57:00.504Z,10.20
2023-10-21T09:00:32.556Z,10.18
2023-10-21T09:04:05.212Z,12.50
2023-10-21T09:07:49.216Z,11.40
2023-10-21T09:11:25.890Z,11.88
2023-10-21T09:14:58.478Z,11.82
2023-10-21T09:18:30.447Z,13.03
2023-10-21T09:22:02.968Z,12.63
2023-10-21T09:25:36.373Z,14.20
2023-10-21T09:29:09.333Z,12.52
2023-10-21T09:32:43.000Z,13.37
2023-10-21T09:36:22.738Z,13.32
2023-10-21T09:39:55.271Z,13.95
2023-10-21T09:43:28.006Z,14.03
2023-10-21T09:47:01.513Z,14.90
2023-10-21T09:50:36.848Z,13.90
2023-10-21T09:54:13.582Z,14.43
2023-10-21T09:57:47.103Z,14.73
2023-10-21T10:01:24.818Z,14.50
2023-10-21T10:04:58.681Z,13.15
2023-10-21T10:08:32.439Z,13.63
2023-10-21T10:12:11.109Z,12.88
2023-10-21T10:15:43.901Z,12.07
2023-10-21T10:19:36.888Z,11.93
2023-10-21T10:23:09.965Z,14.13
2023-10-21T10:26:43.902Z,13.05
2023-10-21T10:30:21.816Z,13.68
2023-10-21T10:33:54.573Z,12.67
2023-10-21T10:37:36.942Z,12.80
2023-10-21T10:41:12.534Z,13.73
2023-10-21T10:44:45.368Z,13.57
2023-10-21T10:48:18.474Z,14.25
2023-10-21T10:51:51.224Z,14.60
2023-10-21T10:55:23.803Z,14.17
2023-10-21T10:58:56.174Z,13.75
2023-10-21T11:02:30.367Z,14.95
2023-10-21T11:06:04.338Z,13.95
2023-10-21T11:09:36.581Z,15.53
2023-10-21T11:13:09.141Z,15.10
2023-10-21T11:16:41.247Z,14.98
2023-10-21T11:20:14.639Z,15.07
2023-10-21T11:23:46.509Z,15.27
2023-10-21T11:27:18.845Z,16.25
2023-10-21T11:30:51.367Z,15.33
2023-10-21T11:34:23.951Z,16.08
2023-10-21T11:37:56.821Z,17.58
2023-10-21T11:41:28.935Z,15.00
2023-10-21T11:45:04.641Z,14.93
2023-10-21T11:48:39.403Z,15.40
2023-10-21T11:52:12.704Z,15.40
2023-10-21T11:55:50.694Z,14.80
2023-10-21T11:59:41.634Z,14.88
2023-10-21T12:03:16.480Z,14.88
2023-10-21T12:07:23.639Z,16.70
2023-10-21T12:11:14.342Z,16.08
2023-10-21T12:15:04.862Z,14.38
2023-10-21T12:18:55.222Z,14.55
2023-10-21T12:22:45.967Z,14.83
2023-10-21T12:26:39.674Z,15.40
2023-10-21T12:30:30.572Z,15.15
2023-10-21T12:34:20.922Z,16.73
2023-10-21T12:38:12.793Z,15.90
2023-10-21T12:41:55.645Z,17.00
2023-10-21T12:45:36.111Z,16.95
2023-10-21T12:49:25.956Z,15.77
2023-10-21T12:52:58.948Z,15.68
2023-10-21T12:56:31.129Z,15.60
2023-10-21T13:00:04.634Z,15.65
2023-10-21T13:03:39.327Z,16.40
2023-10-21T13:07:11.374Z,16.00
2023-10-21T13:10:43.650Z,14.15
2023-10-21T13:14:17.886Z,15.60
2023-10-21T13:17:50.520Z,14.73
2023-10-21T13:21:22.439Z,16.42
2023-10-21T13:25:10.371Z,14.93
2023-10-21T13:28:46.671Z,15.67
2023-10-21T13:32:18.722Z,14.98
2023-10-21T13:35:50.483Z,16.70
2023-10-21T13:39:24.406Z,15.15
2023-10-21T13:42:56.687Z,15.23
2023-10-21T13:46:29.278Z,16.17
2023-10-21T13:50:01.054Z,15.18
2023-10-21T13:53:33.899Z,14.93
2023-10-21T13:57:07.006Z,13.77
2023-10-21T14:00:39.795Z,14.30
2023-10-21T14:04:13.710Z,14.55
2023-10-21T14:07:47.125Z,14.63
2023-10-21T14:11:18.998Z,13.20
2023-10-21T14:14:51.804Z,14.55
2023-10-21T14:18:24.314Z,14.48
2023-10-21T14:21:56.511Z,14.73
2023-10-21T14:25:28.589Z,14.73
2023-10-21T14:29:01.158Z,12.63
2023-10-21T14:32:33.936Z,13.27
2023-10-21T14:36:07.550Z,13.50
2023-10-21T14:39:39.921Z,13.50
2023-10-21T14:43:13.753Z,13.63
2023-10-21T14:46:48.532Z,13.23
2023-10-21T14:50:20.602Z,13.27
2023-10-21T14:53:52.388Z,13.52
2023-10-21T14:57:25.692Z,12.55
2023-10-21T15:00:57.703Z,11.17
2023-10-21T15:04:30.507Z,11.73
2023-10-21T15:08:02.576Z,11.77
2023-10-21T15:11:34.740Z,12.13
2023-10-21T15:15:08.295Z,13.17
2023-10-21T15:18:40.861Z,13.43
2023-10-21T15:22:12.617Z,13.32
2023-10-21T15:25:44.796Z,14.90
2023-10-21T15:29:16.775Z,15.23
2023-10-21T15:32:50.374Z,14.70
2023-10-21T15:36:22.221Z,15.85
2023-10-21T15:39:57.161Z,16.08
2023-10-21T15:43:28.919Z,16.20
2023-10-21T15:47:01.175Z,16.50
2023-10-21T15:50:33.119Z,18.88
2023-10-21T15:54:05.613Z,18.13
2023-10-21T15:57:38.824Z,17.57
2023-10-21T16:01:11.057Z,19.17
2023-10-21T16:04:46.032Z,18.90
2023-10-21T16:08:22.578Z,18.83
2023-10-21T16:11:55.341Z,19.92
2023-10-21T16:15:29.214Z,20.92
2023-10-21T16:19:01.002Z,20.50
2023-10-21T16:22:37.188Z,20.73
2023-10-21T16:26:09.435Z,20.08
2023-10-21T16:29:42.152Z,22.10
2023-10-21T16:33:20.240Z,21.53
2023-10-21T16:37:08.914Z,21.55
2023-10-21T16:40:42.400Z,21.42
2023-10-21T16:44:14.171Z,21.37
2023-10-21T16:47:47.390Z,20.83
2023-10-21T16:51:19.303Z,23.30
2023-10-21T16:54:52.510Z,22.95
2023-10-21T16:58:24.319Z,22.47
2023-10-21T17:01:56.709Z,23.13
2023-10-21T17:05:28.659Z,23.52
2023-10-21T17:09:01.233Z,23.20
2023-10-21T17:12:33.834Z,23.48
2023-10-21T17:16:06.718Z,22.10
2023-10-21T17:19:38.872Z,21.75
2023-10-21T17:23:11.717Z,23.73
2023-10-21T17:26:43.558Z,23.35
2023-10-21T17:30:17.893Z,23.80
2023-10-21T17:33:51.167Z,24.73
2023-10-21T17:37:24.573Z,26.98
2023-10-21T17:40:56.339Z,25.33
2023-10-21T17:44:32.532Z,23.50
2023-10-21T17:48:06.291Z,23.58
2023-10-21T17:51:58.687Z,22.92
2023-10-21T17:55:37.014Z,22.95
2023-10-21T17:59:12.258Z,25.43
2023-10-21T18:02:44.603Z,26.05
2023-10-21T18:06:16.824Z,25.75
2023-10-21T18:09:48.928Z,25.80
2023-10-21T18:13:21.040Z,25.48
2023-10-21T18:16:52.762Z,26.25
2023-10-21T18:20:26.912Z,27.15
2023-10-21T18:23:59.116Z,26.93
2023-10-21T18:27:31.175Z,28.10
2023-10-21T18:31:03.471Z,29.77
2023-10-21T18:34:36.116Z,27.77
2023-10-21T18:38:08.367Z,26.70
2023-10-21T18:41:40.433Z,26.50
2023-10-21T18:45:12.692Z,25.85
2023-10-21T18:48:45.166Z,28.93
2023-10-21T18:52:17.505Z,28.48
2023-10-21T18:55:50.065Z,27.35
2023-10-21T18:59:22.557Z,25.73
2023-10-21T19:02:54.700Z,28.17
2023-10-21T19:06:31.360Z,26.25
2023-10-21T19:10:07.789Z,25.30
2023-10-21T19:13:39.560Z,26.08
2023-10-21T19:17:11.521Z,28.73
2023-10-21T19:20:44.424Z,28.27
2023-10-21T19:24:17.865Z,26.07
2023-10-21T19:27:49.717Z,27.75
2023-10-21T19:31:22.063Z,28.15
2023-10-21T19:34:55.252Z,30.73
2023-10-21T19:38:35.222Z,31.35
2023-10-21T19:42:28.674Z,31.63
2023-10-21T19:50:17.199Z,31.00
2023-10-21T19:54:11.193Z,30.45
2023-10-21T19:57:58.424Z,29.10
2023-10-21T20:01:44.790Z,30.87
2023-10-21T20:05:35.354Z,29.83
2023-10-21T20:09:30.596Z,29.17
2023-10-21T20:14:15.097Z,30.33
2023-10-21T20:18:02.166Z,33.10
2023-10-21T20:21:55.631Z,27.45
2023-10-21T20:25:46.607Z,25.70
2023-10-21T20:34:41.609Z,21.70
2023-10-21T20:38:50.783Z,19.77
2023-10-21T20:42:43.054Z,15.27
2023-10-21T20:50:57.584Z,27.17
2023-10-21T20:59:33.871Z,30.63
2023-10-21T21:08:37.396Z,27.70
2023-10-21T21:12:25.288Z,27.75
2023-10-21T21:16:09.936Z,28.75
2023-10-21T21:20:24.920Z,33.83
2023-10-21T21:24:47.087Z,29.00
2023-10-21T21:28:34.383Z,28.42
2023-10-21T21:32:17.611Z,30.52
2023-10-21T21:36:22.243Z,31.10
2023-10-21T21:40:08.049Z,29.45
2023-10-21T21:44:29.295Z,36.30
2023-10-21T21:48:11.443Z,30.55
2023-10-21T21:51:43.869Z,30.23
2023-10-21T21:55:16.003Z,28.83
2023-10-21T21:58:49.247Z,30.20
2023-10-21T22:02:22.229Z,29.93
2023-10-21T22:05:55.730Z,28.67
2023-10-21T22:09:29.227Z,27.80
2023-10-21T22:13:01.675Z,28.67
2023-10-21T22:16:37.517Z,28.25
2023-10-21T22:20:23.364Z,26.73
2023-10-21T22:24:02.089Z,28.63
2023-10-21T22:27:34.257Z,30.30
2023-10-21T22:31:08.240Z,28.00
2023-10-21T22:34:41.358Z,29.48
2023-10-21T22:38:14.090Z,33.93
2023-10-21T22:41:46.880Z,29.63
2023-10-21T22:45:19.400Z,26.33
2023-10-21T22:48:51.938Z,26.77
2023-10-21T22:52:24.434Z,27.00
2023-10-21T22:55:56.938Z,26.63
2023-10-21T22:59:32.617Z,27.25
2023-10-21T23:03:11.156Z,28.70
2023-10-21T23:06:53.751Z,27.55
2023-10-21T23:10:29.680Z,26.20
2023-10-21T23:14:02.515Z,27.20
2023-10-21T23:17:34.412Z,27.58
2023-10-21T23:21:07.029Z,27.60
2023-10-21T23:24:40.675Z,24.88
2023-10-21T23:28:12.986Z,25.93
2023-10-21T23:31:44.892Z,28.08
2023-10-21T23:35:17.268Z,28.17
2023-10-21T23:38:49.308Z,28.27
2023-10-21T23:42:23.666Z,28.13
2023-10-21T23:45:55.597Z,28.67
2023-10-21T23:49:27.669Z,27.10
2023-10-21T23:52:59.934Z,29.75
2023-10-21T23:56:31.968Z,29.23
